sensor_id;sensor_type;location;lat;lon;timestamp;P1;durP1;ratioP1;P2;durP2;ratioP2
41333;SDS011;27078;46.428;6.256;2023-06-04T00:02:03;8.48;;;5.22;;
41333;SDS011;27078;46.428;6.256;2023-06-04T00:04:28;6.75;;;5.20;;
41333;SDS011;27078;46.428;6.256;2023-06-04T00:06:55;6.95;;;5.10;;
41333;SDS011;27078;46.428;6.256;2023-06-04T00:09:20;6.65;;;4.80;;
41333;SDS011;27078;46.428;6.256;2023-06-04T00:11:46;7.80;;;5.07;;
41333;SDS011;27078;46.428;6.256;2023-06-04T00:14:12;7.90;;;5.50;;
41333;SDS011;27078;46.428;6.256;2023-06-04T00:16:38;6.90;;;5.28;;
41333;SDS011;27078;46.428;6.256;2023-06-04T00:19:05;8.32;;;5.40;;
41333;SDS011;27078;46.428;6.256;2023-06-04T00:21:31;8.23;;;5.65;;
41333;SDS011;27078;46.428;6.256;2023-06-04T00:23:56;8.73;;;5.57;;
41333;SDS011;27078;46.428;6.256;2023-06-04T00:26:22;7.18;;;5.88;;
41333;SDS011;27078;46.428;6.256;2023-06-04T00:28:47;7.95;;;5.38;;
41333;SDS011;27078;46.428;6.256;2023-06-04T00:31:12;8.43;;;5.57;;
41333;SDS011;27078;46.428;6.256;2023-06-04T00:33:41;7.88;;;6.10;;
41333;SDS011;27078;46.428;6.256;2023-06-04T00:36:06;7.55;;;5.60;;
41333;SDS011;27078;46.428;6.256;2023-06-04T00:38:32;7.25;;;4.97;;
41333;SDS011;27078;46.428;6.256;2023-06-04T00:40:57;8.88;;;5.78;;
41333;SDS011;27078;46.428;6.256;2023-06-04T00:43:23;6.88;;;5.18;;
41333;SDS011;27078;46.428;6.256;2023-06-04T00:45:50;8.20;;;5.20;;
41333;SDS011;27078;46.428;6.256;2023-06-04T00:48:17;6.93;;;5.45;;
41333;SDS011;27078;46.428;6.256;2023-06-04T00:50:42;6.97;;;5.40;;
41333;SDS011;27078;46.428;6.256;2023-06-04T00:53:08;7.88;;;5.18;;
41333;SDS011;27078;46.428;6.256;2023-06-04T00:55:35;6.63;;;5.47;;
41333;SDS011;27078;46.428;6.256;2023-06-04T00:58:01;7.32;;;5.13;;
41333;SDS011;27078;46.428;6.256;2023-06-04T01:00:26;8.20;;;5.13;;
41333;SDS011;27078;46.428;6.256;2023-06-04T01:02:52;7.28;;;5.10;;
41333;SDS011;27078;46.428;6.256;2023-06-04T01:07:46;8.68;;;5.45;;
41333;SDS011;27078;46.428;6.256;2023-06-04T01:10:13;7.28;;;5.00;;
41333;SDS011;27078;46.428;6.256;2023-06-04T01:12:42;7.88;;;5.50;;
41333;SDS011;27078;46.428;6.256;2023-06-04T01:15:08;8.90;;;6.10;;
41333;SDS011;27078;46.428;6.256;2023-06-04T01:17:41;8.40;;;5.25;;
41333;SDS011;27078;46.428;6.256;2023-06-04T01:22:48;8.85;;;5.57;;
41333;SDS011;27078;46.428;6.256;2023-06-04T01:28:05;8.27;;;5.70;;
41333;SDS011;27078;46.428;6.256;2023-06-04T01:30:32;8.55;;;5.70;;
41333;SDS011;27078;46.428;6.256;2023-06-04T01:33:00;8.57;;;5.60;;
41333;SDS011;27078;46.428;6.256;2023-06-04T01:35:26;8.35;;;5.50;;
41333;SDS011;27078;46.428;6.256;2023-06-04T01:37:53;6.82;;;5.25;;
41333;SDS011;27078;46.428;6.256;2023-06-04T01:40:19;7.38;;;5.63;;
41333;SDS011;27078;46.428;6.256;2023-06-04T01:42:45;7.05;;;5.30;;
41333;SDS011;27078;46.428;6.256;2023-06-04T01:45:11;7.88;;;5.60;;
41333;SDS011;27078;46.428;6.256;2023-06-04T01:47:36;8.55;;;5.47;;
41333;SDS011;27078;46.428;6.256;2023-06-04T01:50:02;8.13;;;5.70;;
41333;SDS011;27078;46.428;6.256;2023-06-04T01:52:34;7.03;;;4.97;;
41333;SDS011;27078;46.428;6.256;2023-06-04T01:55:03;7.32;;;4.97;;
41333;SDS011;27078;46.428;6.256;2023-06-04T01:57:31;8.75;;;6.05;;
41333;SDS011;27078;46.428;6.256;2023-06-04T01:59:56;7.90;;;5.50;;
41333;SDS011;27078;46.428;6.256;2023-06-04T02:02:22;6.80;;;5.28;;
41333;SDS011;27078;46.428;6.256;2023-06-04T02:04:47;7.60;;;4.97;;
41333;SDS011;27078;46.428;6.256;2023-06-04T02:07:12;7.55;;;5.40;;
41333;SDS011;27078;46.428;6.256;2023-06-04T02:09:42;7.00;;;5.25;;
41333;SDS011;27078;46.428;6.256;2023-06-04T02:12:08;8.02;;;4.85;;
41333;SDS011;27078;46.428;6.256;2023-06-04T02:14:33;8.38;;;5.30;;
41333;SDS011;27078;46.428;6.256;2023-06-04T02:16:59;8.13;;;5.70;;
41333;SDS011;27078;46.428;6.256;2023-06-04T02:19:24;7.53;;;5.32;;
41333;SDS011;27078;46.428;6.256;2023-06-04T02:21:51;8.13;;;5.50;;
41333;SDS011;27078;46.428;6.256;2023-06-04T02:24:17;7.05;;;5.43;;
41333;SDS011;27078;46.428;6.256;2023-06-04T02:26:42;7.55;;;5.13;;
41333;SDS011;27078;46.428;6.256;2023-06-04T02:29:07;6.65;;;5.43;;
41333;SDS011;27078;46.428;6.256;2023-06-04T02:31:33;8.30;;;5.80;;
41333;SDS011;27078;46.428;6.256;2023-06-04T02:33:58;7.43;;;5.80;;
41333;SDS011;27078;46.428;6.256;2023-06-04T02:36:23;8.02;;;5.22;;
41333;SDS011;27078;46.428;6.256;2023-06-04T02:38:48;8.00;;;5.38;;
41333;SDS011;27078;46.428;6.256;2023-06-04T02:41:14;6.90;;;5.40;;
41333;SDS011;27078;46.428;6.256;2023-06-04T02:43:39;6.68;;;5.22;;
41333;SDS011;27078;46.428;6.256;2023-06-04T02:46:05;10.07;;;5.70;;
41333;SDS011;27078;46.428;6.256;2023-06-04T02:48:31;7.70;;;5.65;;
41333;SDS011;27078;46.428;6.256;2023-06-04T02:50:57;6.28;;;5.05;;
41333;SDS011;27078;46.428;6.256;2023-06-04T02:53:22;8.13;;;5.05;;
41333;SDS011;27078;46.428;6.256;2023-06-04T02:55:48;7.60;;;4.85;;
41333;SDS011;27078;46.428;6.256;2023-06-04T02:58:15;7.25;;;4.97;;
41333;SDS011;27078;46.428;6.256;2023-06-04T03:00:41;6.68;;;5.13;;
41333;SDS011;27078;46.428;6.256;2023-06-04T03:03:07;6.70;;;5.30;;
41333;SDS011;27078;46.428;6.256;2023-06-04T03:05:32;8.25;;;5.45;;
41333;SDS011;27078;46.428;6.256;2023-06-04T03:07:58;7.75;;;5.22;;
41333;SDS011;27078;46.428;6.256;2023-06-04T03:10:24;6.88;;;4.95;;
41333;SDS011;27078;46.428;6.256;2023-06-04T03:12:50;8.32;;;5.70;;
41333;SDS011;27078;46.428;6.256;2023-06-04T03:15:15;6.32;;;5.28;;
41333;SDS011;27078;46.428;6.256;2023-06-04T03:17:41;8.63;;;5.05;;
41333;SDS011;27078;46.428;6.256;2023-06-04T03:20:07;6.82;;;4.82;;
41333;SDS011;27078;46.428;6.256;2023-06-04T03:22:33;6.35;;;4.97;;
41333;SDS011;27078;46.428;6.256;2023-06-04T03:25:00;7.22;;;5.28;;
41333;SDS011;27078;46.428;6.256;2023-06-04T03:27:27;7.65;;;4.95;;
41333;SDS011;27078;46.428;6.256;2023-06-04T03:29:52;7.10;;;4.78;;
41333;SDS011;27078;46.428;6.256;2023-06-04T03:32:17;7.35;;;5.18;;
41333;SDS011;27078;46.428;6.256;2023-06-04T03:34:43;7.60;;;5.20;;
41333;SDS011;27078;46.428;6.256;2023-06-04T03:37:08;8.27;;;5.22;;
41333;SDS011;27078;46.428;6.256;2023-06-04T03:39:34;5.80;;;4.55;;
41333;SDS011;27078;46.428;6.256;2023-06-04T03:41:59;6.68;;;4.75;;
41333;SDS011;27078;46.428;6.256;2023-06-04T03:44:25;7.47;;;4.80;;
41333;SDS011;27078;46.428;6.256;2023-06-04T03:46:51;6.80;;;4.93;;
41333;SDS011;27078;46.428;6.256;2023-06-04T03:49:16;7.30;;;5.20;;
41333;SDS011;27078;46.428;6.256;2023-06-04T03:51:42;7.10;;;4.88;;
41333;SDS011;27078;46.428;6.256;2023-06-04T03:54:07;9.10;;;4.60;;
41333;SDS011;27078;46.428;6.256;2023-06-04T03:56:33;7.30;;;4.60;;
41333;SDS011;27078;46.428;6.256;2023-06-04T03:58:58;6.40;;;4.75;;
41333;SDS011;27078;46.428;6.256;2023-06-04T04:01:23;6.40;;;4.80;;
41333;SDS011;27078;46.428;6.256;2023-06-04T04:03:50;5.95;;;4.60;;
41333;SDS011;27078;46.428;6.256;2023-06-04T04:06:16;7.22;;;4.72;;
41333;SDS011;27078;46.428;6.256;2023-06-04T04:08:41;7.82;;;4.30;;
41333;SDS011;27078;46.428;6.256;2023-06-04T04:11:12;6.40;;;4.65;;
41333;SDS011;27078;46.428;6.256;2023-06-04T04:13:38;6.70;;;4.55;;
41333;SDS011;27078;46.428;6.256;2023-06-04T04:16:03;8.70;;;4.65;;
41333;SDS011;27078;46.428;6.256;2023-06-04T04:18:32;6.65;;;4.25;;
41333;SDS011;27078;46.428;6.256;2023-06-04T04:20:58;5.88;;;4.38;;
41333;SDS011;27078;46.428;6.256;2023-06-04T04:23:23;5.97;;;4.40;;
41333;SDS011;27078;46.428;6.256;2023-06-04T04:25:49;6.05;;;4.32;;
41333;SDS011;27078;46.428;6.256;2023-06-04T04:28:15;6.28;;;4.55;;
41333;SDS011;27078;46.428;6.256;2023-06-04T04:30:42;5.97;;;4.47;;
41333;SDS011;27078;46.428;6.256;2023-06-04T04:33:09;6.93;;;4.53;;
41333;SDS011;27078;46.428;6.256;2023-06-04T04:35:35;6.15;;;4.25;;
41333;SDS011;27078;46.428;6.256;2023-06-04T04:38:01;6.15;;;4.70;;
41333;SDS011;27078;46.428;6.256;2023-06-04T04:40:30;5.40;;;4.18;;
41333;SDS011;27078;46.428;6.256;2023-06-04T04:42:55;7.03;;;4.47;;
41333;SDS011;27078;46.428;6.256;2023-06-04T04:45:21;6.75;;;4.63;;
41333;SDS011;27078;46.428;6.256;2023-06-04T04:47:46;6.53;;;4.70;;
41333;SDS011;27078;46.428;6.256;2023-06-04T04:50:12;5.47;;;4.50;;
41333;SDS011;27078;46.428;6.256;2023-06-04T04:52:37;6.45;;;4.38;;
41333;SDS011;27078;46.428;6.256;2023-06-04T04:55:03;6.50;;;4.60;;
41333;SDS011;27078;46.428;6.256;2023-06-04T04:57:29;6.55;;;4.38;;
41333;SDS011;27078;46.428;6.256;2023-06-04T04:59:54;5.25;;;4.45;;
41333;SDS011;27078;46.428;6.256;2023-06-04T05:02:20;7.47;;;4.38;;
41333;SDS011;27078;46.428;6.256;2023-06-04T05:04:45;5.40;;;4.47;;
41333;SDS011;27078;46.428;6.256;2023-06-04T05:07:10;6.32;;;4.30;;
41333;SDS011;27078;46.428;6.256;2023-06-04T05:09:36;6.63;;;4.43;;
41333;SDS011;27078;46.428;6.256;2023-06-04T05:12:01;6.70;;;4.50;;
41333;SDS011;27078;46.428;6.256;2023-06-04T05:14:26;6.97;;;4.82;;
41333;SDS011;27078;46.428;6.256;2023-06-04T05:16:53;6.22;;;4.55;;
41333;SDS011;27078;46.428;6.256;2023-06-04T05:19:21;7.75;;;4.90;;
41333;SDS011;27078;46.428;6.256;2023-06-04T05:21:47;7.30;;;5.30;;
41333;SDS011;27078;46.428;6.256;2023-06-04T05:24:13;8.35;;;5.20;;
41333;SDS011;27078;46.428;6.256;2023-06-04T05:26:39;5.80;;;4.80;;
41333;SDS011;27078;46.428;6.256;2023-06-04T05:29:04;7.15;;;4.97;;
41333;SDS011;27078;46.428;6.256;2023-06-04T05:31:30;6.57;;;4.72;;
41333;SDS011;27078;46.428;6.256;2023-06-04T05:33:58;7.88;;;4.55;;
41333;SDS011;27078;46.428;6.256;2023-06-04T05:36:27;5.20;;;4.00;;
41333;SDS011;27078;46.428;6.256;2023-06-04T05:38:52;5.90;;;4.38;;
41333;SDS011;27078;46.428;6.256;2023-06-04T05:41:22;7.82;;;4.28;;
41333;SDS011;27078;46.428;6.256;2023-06-04T05:43:48;7.85;;;4.60;;
41333;SDS011;27078;46.428;6.256;2023-06-04T05:46:14;5.15;;;4.00;;
41333;SDS011;27078;46.428;6.256;2023-06-04T05:48:39;6.95;;;4.50;;
41333;SDS011;27078;46.428;6.256;2023-06-04T05:51:05;5.32;;;4.15;;
41333;SDS011;27078;46.428;6.256;2023-06-04T05:53:30;6.00;;;4.30;;
41333;SDS011;27078;46.428;6.256;2023-06-04T05:55:56;6.20;;;4.50;;
41333;SDS011;27078;46.428;6.256;2023-06-04T05:58:21;6.80;;;4.45;;
41333;SDS011;27078;46.428;6.256;2023-06-04T06:00:46;8.93;;;4.28;;
41333;SDS011;27078;46.428;6.256;2023-06-04T06:03:13;5.88;;;4.07;;
41333;SDS011;27078;46.428;6.256;2023-06-04T06:05:41;6.63;;;4.18;;
41333;SDS011;27078;46.428;6.256;2023-06-04T06:08:07;6.05;;;4.07;;
41333;SDS011;27078;46.428;6.256;2023-06-04T06:10:32;7.95;;;4.53;;
41333;SDS011;27078;46.428;6.256;2023-06-04T06:12:58;6.78;;;4.20;;
41333;SDS011;27078;46.428;6.256;2023-06-04T06:15:25;5.72;;;4.05;;
41333;SDS011;27078;46.428;6.256;2023-06-04T06:17:51;8.18;;;4.20;;
41333;SDS011;27078;46.428;6.256;2023-06-04T06:20:17;4.88;;;4.07;;
41333;SDS011;27078;46.428;6.256;2023-06-04T06:22:43;6.70;;;4.05;;
41333;SDS011;27078;46.428;6.256;2023-06-04T06:25:09;6.50;;;4.30;;
41333;SDS011;27078;46.428;6.256;2023-06-04T06:27:37;5.65;;;4.03;;
41333;SDS011;27078;46.428;6.256;2023-06-04T06:30:03;7.32;;;4.38;;
41333;SDS011;27078;46.428;6.256;2023-06-04T06:32:30;5.97;;;4.03;;
41333;SDS011;27078;46.428;6.256;2023-06-04T06:34:55;6.35;;;4.30;;
41333;SDS011;27078;46.428;6.256;2023-06-04T06:37:20;6.75;;;3.95;;
41333;SDS011;27078;46.428;6.256;2023-06-04T06:39:46;6.47;;;4.40;;
41333;SDS011;27078;46.428;6.256;2023-06-04T06:42:11;5.65;;;4.00;;
41333;SDS011;27078;46.428;6.256;2023-06-04T06:44:37;6.75;;;3.83;;
41333;SDS011;27078;46.428;6.256;2023-06-04T06:47:03;6.13;;;3.95;;
41333;SDS011;27078;46.428;6.256;2023-06-04T06:49:28;5.55;;;3.97;;
41333;SDS011;27078;46.428;6.256;2023-06-04T06:51:53;5.38;;;3.80;;
41333;SDS011;27078;46.428;6.256;2023-06-04T06:54:19;7.00;;;3.88;;
41333;SDS011;27078;46.428;6.256;2023-06-04T06:56:46;4.85;;;3.53;;
41333;SDS011;27078;46.428;6.256;2023-06-04T06:59:13;7.63;;;4.20;;
41333;SDS011;27078;46.428;6.256;2023-06-04T07:01:39;5.85;;;3.90;;
41333;SDS011;27078;46.428;6.256;2023-06-04T07:04:04;4.32;;;3.78;;
41333;SDS011;27078;46.428;6.256;2023-06-04T07:06:29;4.70;;;3.63;;
41333;SDS011;27078;46.428;6.256;2023-06-04T07:08:55;5.50;;;3.75;;
41333;SDS011;27078;46.428;6.256;2023-06-04T07:11:20;4.88;;;3.70;;
41333;SDS011;27078;46.428;6.256;2023-06-04T07:13:46;5.20;;;3.80;;
41333;SDS011;27078;46.428;6.256;2023-06-04T07:16:12;5.18;;;3.80;;
41333;SDS011;27078;46.428;6.256;2023-06-04T07:18:37;5.00;;;3.78;;
41333;SDS011;27078;46.428;6.256;2023-06-04T07:21:03;4.38;;;3.20;;
41333;SDS011;27078;46.428;6.256;2023-06-04T07:23:28;6.60;;;3.63;;
41333;SDS011;27078;46.428;6.256;2023-06-04T07:25:53;7.20;;;3.83;;
41333;SDS011;27078;46.428;6.256;2023-06-04T07:28:19;4.60;;;3.30;;
41333;SDS011;27078;46.428;6.256;2023-06-04T07:30:45;4.65;;;3.17;;
41333;SDS011;27078;46.428;6.256;2023-06-04T07:33:10;6.90;;;3.55;;
41333;SDS011;27078;46.428;6.256;2023-06-04T07:35:36;3.75;;;3.05;;
41333;SDS011;27078;46.428;6.256;2023-06-04T07:38:01;5.53;;;3.45;;
41333;SDS011;27078;46.428;6.256;2023-06-04T07:40:26;4.78;;;2.80;;
41333;SDS011;27078;46.428;6.256;2023-06-04T07:42:52;7.63;;;3.45;;
41333;SDS011;27078;46.428;6.256;2023-06-04T07:45:17;4.50;;;3.35;;
41333;SDS011;27078;46.428;6.256;2023-06-04T07:47:43;4.53;;;3.38;;
41333;SDS011;27078;46.428;6.256;2023-06-04T07:50:09;6.43;;;3.47;;
41333;SDS011;27078;46.428;6.256;2023-06-04T07:52:34;5.22;;;3.08;;
41333;SDS011;27078;46.428;6.256;2023-06-04T07:55:00;5.63;;;3.13;;
41333;SDS011;27078;46.428;6.256;2023-06-04T07:57:25;4.40;;;3.20;;
41333;SDS011;27078;46.428;6.256;2023-06-04T07:59:51;4.05;;;2.90;;
41333;SDS011;27078;46.428;6.256;2023-06-04T08:02:17;3.80;;;2.85;;
41333;SDS011;27078;46.428;6.256;2023-06-04T08:04:42;4.63;;;3.17;;
41333;SDS011;27078;46.428;6.256;2023-06-04T08:07:07;6.25;;;3.03;;
41333;SDS011;27078;46.428;6.256;2023-06-04T08:09:33;3.47;;;2.75;;
41333;SDS011;27078;46.428;6.256;2023-06-04T08:11:59;4.50;;;2.72;;
41333;SDS011;27078;46.428;6.256;2023-06-04T08:14:25;4.63;;;2.88;;
41333;SDS011;27078;46.428;6.256;2023-06-04T08:16:52;3.55;;;2.70;;
41333;SDS011;27078;46.428;6.256;2023-06-04T08:19:18;3.20;;;2.70;;
41333;SDS011;27078;46.428;6.256;2023-06-04T08:21:44;3.92;;;2.60;;
41333;SDS011;27078;46.428;6.256;2023-06-04T08:24:10;3.63;;;2.47;;
41333;SDS011;27078;46.428;6.256;2023-06-04T08:26:51;3.03;;;2.60;;
41333;SDS011;27078;46.428;6.256;2023-06-04T08:29:25;3.45;;;2.50;;
41333;SDS011;27078;46.428;6.256;2023-06-04T08:32:03;3.65;;;2.50;;
41333;SDS011;27078;46.428;6.256;2023-06-04T08:34:29;4.20;;;2.28;;
41333;SDS011;27078;46.428;6.256;2023-06-04T08:36:55;2.85;;;2.00;;
41333;SDS011;27078;46.428;6.256;2023-06-04T08:39:20;3.28;;;2.10;;
41333;SDS011;27078;46.428;6.256;2023-06-04T08:41:59;2.80;;;2.17;;
41333;SDS011;27078;46.428;6.256;2023-06-04T08:44:29;3.67;;;2.22;;
41333;SDS011;27078;46.428;6.256;2023-06-04T08:46:55;6.22;;;2.63;;
41333;SDS011;27078;46.428;6.256;2023-06-04T08:49:27;3.00;;;2.30;;
41333;SDS011;27078;46.428;6.256;2023-06-04T08:52:00;3.53;;;2.40;;
41333;SDS011;27078;46.428;6.256;2023-06-04T08:54:26;4.00;;;2.30;;
41333;SDS011;27078;46.428;6.256;2023-06-04T08:56:55;4.05;;;2.40;;
41333;SDS011;27078;46.428;6.256;2023-06-04T08:59:22;3.45;;;2.35;;
41333;SDS011;27078;46.428;6.256;2023-06-04T09:01:50;3.33;;;2.40;;
41333;SDS011;27078;46.428;6.256;2023-06-04T09:04:18;5.72;;;2.40;;
41333;SDS011;27078;46.428;6.256;2023-06-04T09:06:43;3.08;;;2.08;;
41333;SDS011;27078;46.428;6.256;2023-06-04T09:09:10;3.50;;;2.70;;
41333;SDS011;27078;46.428;6.256;2023-06-04T09:11:49;3.92;;;2.50;;
41333;SDS011;27078;46.428;6.256;2023-06-04T09:14:17;3.97;;;2.90;;
41333;SDS011;27078;46.428;6.256;2023-06-04T09:16:49;4.47;;;2.35;;
41333;SDS011;27078;46.428;6.256;2023-06-04T09:19:17;4.20;;;2.60;;
41333;SDS011;27078;46.428;6.256;2023-06-04T09:21:56;3.10;;;2.20;;
41333;SDS011;27078;46.428;6.256;2023-06-04T09:24:38;5.90;;;2.85;;
41333;SDS011;27078;46.428;6.256;2023-06-04T09:27:11;7.50;;;2.63;;
41333;SDS011;27078;46.428;6.256;2023-06-04T09:29:40;4.47;;;2.50;;
41333;SDS011;27078;46.428;6.256;2023-06-04T09:32:14;5.30;;;2.50;;
41333;SDS011;27078;46.428;6.256;2023-06-04T09:34:39;3.97;;;2.80;;
41333;SDS011;27078;46.428;6.256;2023-06-04T09:37:13;5.00;;;2.63;;
41333;SDS011;27078;46.428;6.256;2023-06-04T09:39:40;3.40;;;2.70;;
41333;SDS011;27078;46.428;6.256;2023-06-04T09:42:05;4.32;;;2.85;;
41333;SDS011;27078;46.428;6.256;2023-06-04T09:44:31;3.28;;;2.60;;
41333;SDS011;27078;46.428;6.256;2023-06-04T09:46:57;3.95;;;2.58;;
41333;SDS011;27078;46.428;6.256;2023-06-04T09:49:23;7.30;;;3.00;;
41333;SDS011;27078;46.428;6.256;2023-06-04T09:51:48;4.18;;;2.90;;
41333;SDS011;27078;46.428;6.256;2023-06-04T09:54:14;5.20;;;2.67;;
41333;SDS011;27078;46.428;6.256;2023-06-04T09:56:40;4.40;;;2.47;;
41333;SDS011;27078;46.428;6.256;2023-06-04T09:59:06;3.70;;;2.53;;
41333;SDS011;27078;46.428;6.256;2023-06-04T10:01:33;3.75;;;2.55;;
41333;SDS011;27078;46.428;6.256;2023-06-04T10:04:03;3.90;;;2.83;;
41333;SDS011;27078;46.428;6.256;2023-06-04T10:06:33;4.38;;;2.58;;
41333;SDS011;27078;46.428;6.256;2023-06-04T10:09:03;3.83;;;2.38;;
41333;SDS011;27078;46.428;6.256;2023-06-04T10:11:31;3.47;;;2.40;;
41333;SDS011;27078;46.428;6.256;2023-06-04T10:14:03;4.28;;;2.50;;
41333;SDS011;27078;46.428;6.256;2023-06-04T10:16:36;5.60;;;2.95;;
41333;SDS011;27078;46.428;6.256;2023-06-04T10:19:06;3.63;;;2.80;;
41333;SDS011;27078;46.428;6.256;2023-06-04T10:21:32;4.70;;;2.70;;
41333;SDS011;27078;46.428;6.256;2023-06-04T10:24:00;5.43;;;2.95;;
41333;SDS011;27078;46.428;6.256;2023-06-04T10:26:25;4.50;;;2.83;;
41333;SDS011;27078;46.428;6.256;2023-06-04T10:28:51;3.17;;;2.50;;
41333;SDS011;27078;46.428;6.256;2023-06-04T10:31:18;4.13;;;2.97;;
41333;SDS011;27078;46.428;6.256;2023-06-04T10:33:43;5.85;;;3.30;;
41333;SDS011;27078;46.428;6.256;2023-06-04T10:36:15;4.65;;;2.90;;
41333;SDS011;27078;46.428;6.256;2023-06-04T10:38:54;3.47;;;2.75;;
41333;SDS011;27078;46.428;6.256;2023-06-04T10:41:20;3.78;;;3.15;;
41333;SDS011;27078;46.428;6.256;2023-06-04T10:43:48;3.75;;;2.83;;
41333;SDS011;27078;46.428;6.256;2023-06-04T10:46:15;3.85;;;2.85;;
41333;SDS011;27078;46.428;6.256;2023-06-04T10:51:13;3.92;;;3.25;;
41333;SDS011;27078;46.428;6.256;2023-06-04T10:53:40;4.43;;;3.13;;
41333;SDS011;27078;46.428;6.256;2023-06-04T10:56:05;4.05;;;3.40;;
41333;SDS011;27078;46.428;6.256;2023-06-04T10:58:31;3.78;;;2.92;;
41333;SDS011;27078;46.428;6.256;2023-06-04T11:00:57;3.05;;;2.50;;
41333;SDS011;27078;46.428;6.256;2023-06-04T11:03:22;4.13;;;2.53;;
41333;SDS011;27078;46.428;6.256;2023-06-04T11:05:48;5.72;;;2.63;;
41333;SDS011;27078;46.428;6.256;2023-06-04T11:08:25;3.20;;;2.30;;
41333;SDS011;27078;46.428;6.256;2023-06-04T11:10:55;3.75;;;2.50;;
41333;SDS011;27078;46.428;6.256;2023-06-04T11:13:24;3.30;;;2.70;;
41333;SDS011;27078;46.428;6.256;2023-06-04T11:15:53;2.92;;;2.47;;
41333;SDS011;27078;46.428;6.256;2023-06-04T11:18:19;3.50;;;2.70;;
41333;SDS011;27078;46.428;6.256;2023-06-04T11:20:47;3.35;;;2.65;;
41333;SDS011;27078;46.428;6.256;2023-06-04T11:23:13;4.82;;;3.60;;
41333;SDS011;27078;46.428;6.256;2023-06-04T11:25:40;4.55;;;3.67;;
41333;SDS011;27078;46.428;6.256;2023-06-04T11:28:08;9.52;;;5.97;;
41333;SDS011;27078;46.428;6.256;2023-06-04T11:30:40;18.15;;;8.50;;
41333;SDS011;27078;46.428;6.256;2023-06-04T11:33:05;16.67;;;8.23;;
41333;SDS011;27078;46.428;6.256;2023-06-04T11:35:32;9.80;;;5.85;;
41333;SDS011;27078;46.428;6.256;2023-06-04T11:38:05;20.08;;;11.95;;
41333;SDS011;27078;46.428;6.256;2023-06-04T11:40:31;11.85;;;6.88;;
41333;SDS011;27078;46.428;6.256;2023-06-04T11:42:56;8.80;;;5.82;;
41333;SDS011;27078;46.428;6.256;2023-06-04T11:45:22;11.80;;;6.80;;
41333;SDS011;27078;46.428;6.256;2023-06-04T11:47:55;8.02;;;4.72;;
41333;SDS011;27078;46.428;6.256;2023-06-04T11:50:22;5.80;;;3.55;;
41333;SDS011;27078;46.428;6.256;2023-06-04T11:52:54;4.72;;;3.25;;
41333;SDS011;27078;46.428;6.256;2023-06-04T11:55:20;3.88;;;3.28;;
41333;SDS011;27078;46.428;6.256;2023-06-04T11:57:45;5.43;;;3.80;;
41333;SDS011;27078;46.428;6.256;2023-06-04T12:00:12;5.13;;;2.95;;
41333;SDS011;27078;46.428;6.256;2023-06-04T12:02:38;5.03;;;3.30;;
41333;SDS011;27078;46.428;6.256;2023-06-04T12:05:13;5.05;;;3.45;;
41333;SDS011;27078;46.428;6.256;2023-06-04T12:07:40;3.97;;;3.15;;
41333;SDS011;27078;46.428;6.256;2023-06-04T12:10:06;3.50;;;2.65;;
41333;SDS011;27078;46.428;6.256;2023-06-04T12:12:33;4.13;;;2.95;;
41333;SDS011;27078;46.428;6.256;2023-06-04T12:14:59;4.07;;;2.90;;
41333;SDS011;27078;46.428;6.256;2023-06-04T12:17:25;4.72;;;2.80;;
41333;SDS011;27078;46.428;6.256;2023-06-04T12:19:51;4.53;;;3.17;;
41333;SDS011;27078;46.428;6.256;2023-06-04T12:22:17;4.97;;;3.10;;
41333;SDS011;27078;46.428;6.256;2023-06-04T12:24:49;4.65;;;3.20;;
41333;SDS011;27078;46.428;6.256;2023-06-04T12:27:19;3.72;;;2.70;;
41333;SDS011;27078;46.428;6.256;2023-06-04T12:29:58;4.47;;;3.13;;
41333;SDS011;27078;46.428;6.256;2023-06-04T12:32:25;5.03;;;3.20;;
41333;SDS011;27078;46.428;6.256;2023-06-04T12:34:51;5.55;;;3.22;;
41333;SDS011;27078;46.428;6.256;2023-06-04T12:37:17;4.05;;;3.10;;
41333;SDS011;27078;46.428;6.256;2023-06-04T12:39:42;3.95;;;3.17;;
41333;SDS011;27078;46.428;6.256;2023-06-04T12:42:08;5.72;;;3.10;;
41333;SDS011;27078;46.428;6.256;2023-06-04T12:44:39;4.00;;;2.90;;
41333;SDS011;27078;46.428;6.256;2023-06-04T12:47:05;3.33;;;2.90;;
41333;SDS011;27078;46.428;6.256;2023-06-04T12:49:31;5.00;;;3.40;;
41333;SDS011;27078;46.428;6.256;2023-06-04T12:51:57;3.80;;;3.00;;
41333;SDS011;27078;46.428;6.256;2023-06-04T12:54:22;4.72;;;3.20;;
41333;SDS011;27078;46.428;6.256;2023-06-04T12:56:48;4.10;;;3.30;;
41333;SDS011;27078;46.428;6.256;2023-06-04T12:59:14;4.82;;;3.13;;
41333;SDS011;27078;46.428;6.256;2023-06-04T13:01:40;5.18;;;3.05;;
41333;SDS011;27078;46.428;6.256;2023-06-04T13:04:05;4.07;;;3.15;;
41333;SDS011;27078;46.428;6.256;2023-06-04T13:06:31;6.18;;;3.17;;
41333;SDS011;27078;46.428;6.256;2023-06-04T13:08:56;3.78;;;3.05;;
41333;SDS011;27078;46.428;6.256;2023-06-04T13:11:22;5.05;;;3.20;;
41333;SDS011;27078;46.428;6.256;2023-06-04T13:13:48;3.83;;;3.15;;
41333;SDS011;27078;46.428;6.256;2023-06-04T13:16:13;4.35;;;3.30;;
41333;SDS011;27078;46.428;6.256;2023-06-04T13:18:39;5.28;;;3.10;;
41333;SDS011;27078;46.428;6.256;2023-06-04T13:21:04;3.80;;;3.20;;
41333;SDS011;27078;46.428;6.256;2023-06-04T13:23:30;5.47;;;3.17;;
41333;SDS011;27078;46.428;6.256;2023-06-04T13:25:55;5.15;;;3.15;;
41333;SDS011;27078;46.428;6.256;2023-06-04T13:28:21;4.57;;;3.13;;
41333;SDS011;27078;46.428;6.256;2023-06-04T13:30:46;3.75;;;3.08;;
41333;SDS011;27078;46.428;6.256;2023-06-04T13:33:12;4.03;;;3.28;;
41333;SDS011;27078;46.428;6.256;2023-06-04T13:35:37;5.63;;;3.30;;
41333;SDS011;27078;46.428;6.256;2023-06-04T13:38:05;4.05;;;3.40;;
41333;SDS011;27078;46.428;6.256;2023-06-04T13:40:34;4.47;;;3.50;;
41333;SDS011;27078;46.428;6.256;2023-06-04T13:43:00;4.50;;;3.42;;
41333;SDS011;27078;46.428;6.256;2023-06-04T13:45:26;3.85;;;3.20;;
41333;SDS011;27078;46.428;6.256;2023-06-04T13:47:51;4.57;;;3.28;;
41333;SDS011;27078;46.428;6.256;2023-06-04T13:50:16;4.55;;;3.15;;
41333;SDS011;27078;46.428;6.256;2023-06-04T13:52:42;4.15;;;3.30;;
41333;SDS011;27078;46.428;6.256;2023-06-04T13:55:08;4.40;;;3.60;;
41333;SDS011;27078;46.428;6.256;2023-06-04T13:57:34;6.03;;;3.70;;
41333;SDS011;27078;46.428;6.256;2023-06-04T13:59:59;4.93;;;3.42;;
41333;SDS011;27078;46.428;6.256;2023-06-04T14:02:25;5.05;;;3.30;;
41333;SDS011;27078;46.428;6.256;2023-06-04T14:04:51;5.28;;;3.50;;
41333;SDS011;27078;46.428;6.256;2023-06-04T14:07:18;6.10;;;3.70;;
41333;SDS011;27078;46.428;6.256;2023-06-04T14:09:44;4.55;;;3.40;;
41333;SDS011;27078;46.428;6.256;2023-06-04T14:12:09;6.03;;;3.67;;
41333;SDS011;27078;46.428;6.256;2023-06-04T14:14:35;4.70;;;3.80;;
41333;SDS011;27078;46.428;6.256;2023-06-04T14:17:03;3.92;;;3.40;;
41333;SDS011;27078;46.428;6.256;2023-06-04T14:19:29;5.20;;;3.55;;
41333;SDS011;27078;46.428;6.256;2023-06-04T14:21:55;5.43;;;3.60;;
41333;SDS011;27078;46.428;6.256;2023-06-04T14:24:20;3.70;;;3.22;;
41333;SDS011;27078;46.428;6.256;2023-06-04T14:26:46;4.60;;;3.67;;
41333;SDS011;27078;46.428;6.256;2023-06-04T14:29:12;4.00;;;3.40;;
41333;SDS011;27078;46.428;6.256;2023-06-04T14:31:38;5.90;;;3.53;;
41333;SDS011;27078;46.428;6.256;2023-06-04T14:34:03;4.05;;;3.20;;
41333;SDS011;27078;46.428;6.256;2023-06-04T14:36:29;4.18;;;3.00;;
41333;SDS011;27078;46.428;6.256;2023-06-04T14:38:55;3.10;;;2.50;;
41333;SDS011;27078;46.428;6.256;2023-06-04T14:41:21;3.97;;;1.95;;
41333;SDS011;27078;46.428;6.256;2023-06-04T14:43:47;2.80;;;1.90;;
41333;SDS011;27078;46.428;6.256;2023-06-04T14:46:12;2.88;;;1.60;;
41333;SDS011;27078;46.428;6.256;2023-06-04T14:48:37;3.25;;;1.98;;
41333;SDS011;27078;46.428;6.256;2023-06-04T14:51:03;4.53;;;2.60;;
41333;SDS011;27078;46.428;6.256;2023-06-04T14:53:28;4.45;;;2.47;;
41333;SDS011;27078;46.428;6.256;2023-06-04T14:55:53;3.20;;;2.40;;